Time;durP1;ratioP1;P1;durP2;ratioP2;P2;SDS_P1;SDS_P2;PMS_P1;PMS_P2;Temp;Humidity;BMP_temperature;BMP_pressure;BME280_temperature;BME280_humidity;BME280_pressure;Samples;Min_cycle;Max_cycle;Signal;HPM_P1;HPM_P2
2022/12/11 00:01:17;;;;;;;;;;;19.00;42.20;;;;;;5005424;28;19917;-53
2022/12/11 00:03:43;;;;;;;;;;;19.00;42.60;;;;;;5003426;28;19920;-52
2022/12/11 00:06:09;;;;;;;;;;;19.00;42.30;;;;;;5001598;28;20012;-52
2022/12/11 00:08:34;;;;;;;;;;;19.00;42.20;;;;;;5015296;28;19917;-52
2022/12/11 00:11:00;;;;;;;;;;;19.10;41.50;;;;;;5013032;28;19930;-53
2022/12/11 00:13:25;;;;;;;;;;;19.10;41.70;;;;;;5001337;28;20293;-53
2022/12/11 00:15:51;;;;;;;;;;;19.20;42.20;;;;;;5002320;28;20335;-52
2022/12/11 00:18:16;;;;;;;;;;;19.20;41.40;;;;;;5002177;28;19919;-53
2022/12/11 00:20:42;;;;;;;;;;;19.30;41.30;;;;;;5001374;28;19922;-53
2022/12/11 00:23:07;;;;;;;;;;;19.30;41.20;;;;;;5001504;28;19917;-53
2022/12/11 00:25:33;;;;;;;;;;;19.30;41.10;;;;;;5001899;28;19917;-53
2022/12/11 00:27:58;;;;;;;;;;;19.40;41.10;;;;;;5002467;28;19914;-53
2022/12/11 00:30:23;;;;;;;;;;;19.40;41.10;;;;;;5003556;28;19920;-53
2022/12/11 00:32:52;;;;;;;;;;;19.40;41.00;;;;;;5002451;28;19925;-55
2022/12/11 00:35:17;;;;;;;;;;;19.40;40.90;;;;;;5000875;28;19914;-53
2022/12/11 00:37:42;;;;;;;;;;;19.40;40.90;;;;;;5001590;28;20400;-52
2022/12/11 00:40:08;;;;;;;;;;;19.30;40.90;;;;;;5008205;28;19951;-53
2022/12/11 00:42:34;;;;;;;;;;;19.30;41.00;;;;;;5002095;28;19917;-53
2022/12/11 00:44:59;;;;;;;;;;;19.30;41.10;;;;;;5001321;28;19918;-53
2022/12/11 00:47:25;;;;;;;;;;;19.30;41.10;;;;;;4998963;28;19925;-53
2022/12/11 00:49:50;;;;;;;;;;;19.20;41.10;;;;;;5000466;28;19918;-53
2022/12/11 00:52:16;;;;;;;;;;;19.20;41.00;;;;;;5001631;28;19914;-53
2022/12/11 00:54:42;;;;;;;;;;;19.20;41.00;;;;;;5002264;28;19913;-53
2022/12/11 00:57:07;;;;;;;;;;;19.20;41.10;;;;;;4998255;28;19914;-54
2022/12/11 00:59:32;;;;;;;;;;;19.20;41.10;;;;;;5001281;28;19922;-53
2022/12/11 01:01:58;;;;;;;;;;;19.10;41.00;;;;;;5000652;28;19918;-53
2022/12/11 01:04:23;;;;;;;;;;;19.10;41.00;;;;;;5011912;28;19918;-54
2022/12/11 01:06:49;;;;;;;;;;;19.10;40.90;;;;;;5008468;28;19918;-53
2022/12/11 01:11:58;;;;;;;;;;;19.10;41.00;;;;;;5001835;28;19920;-53
2022/12/11 01:14:24;;;;;;;;;;;19.10;40.90;;;;;;4996561;28;20311;-53
2022/12/11 01:16:49;;;;;;;;;;;19.10;40.90;;;;;;4988605;28;19917;-53
2022/12/11 01:19:14;;;;;;;;;;;19.10;40.90;;;;;;5001563;28;19958;-54
2022/12/11 01:21:40;;;;;;;;;;;19.10;40.90;;;;;;5004739;28;19984;-54
2022/12/11 01:24:07;;;;;;;;;;;19.10;41.10;;;;;;5005199;28;21134;-53
2022/12/11 01:26:33;;;;;;;;;;;19.10;41.10;;;;;;5003790;28;19913;-53
2022/12/11 01:28:58;;;;;;;;;;;19.10;41.10;;;;;;5004597;28;19960;-53
2022/12/11 01:31:24;;;;;;;;;;;19.00;40.90;;;;;;5003909;28;19926;-52
2022/12/11 01:33:52;;;;;;;;;;;19.10;40.90;;;;;;5005210;28;19924;-53
2022/12/11 01:36:18;;;;;;;;;;;19.10;40.80;;;;;;5004870;28;19967;-53
2022/12/11 01:38:44;;;;;;;;;;;19.10;40.70;;;;;;5017136;28;19922;-52
2022/12/11 01:41:09;;;;;;;;;;;19.10;40.60;;;;;;5005249;28;19924;-54
2022/12/11 01:43:53;;;;;;;;;;;19.20;40.60;;;;;;5003877;28;20426;-53
2022/12/11 01:46:19;;;;;;;;;;;19.20;40.60;;;;;;4992305;28;19917;-54
2022/12/11 01:48:44;;;;;;;;;;;19.20;40.50;;;;;;5001913;28;19928;-52
2022/12/11 01:51:10;;;;;;;;;;;19.20;40.50;;;;;;5002783;28;19922;-54
2022/12/11 01:53:39;;;;;;;;;;;19.20;40.50;;;;;;5005288;28;19913;-54
2022/12/11 01:56:05;;;;;;;;;;;19.20;40.40;;;;;;4990784;28;19987;-53
2022/12/11 01:58:31;;;;;;;;;;;19.20;40.40;;;;;;5000358;28;20318;-53
2022/12/11 02:00:57;;;;;;;;;;;19.20;40.40;;;;;;5001320;28;19941;-53
2022/12/11 02:03:22;;;;;;;;;;;19.20;40.40;;;;;;5004118;28;20369;-53
2022/12/11 02:05:47;;;;;;;;;;;19.20;40.40;;;;;;5004304;28;19921;-53
2022/12/11 02:08:13;;;;;;;;;;;19.20;40.40;;;;;;5005543;28;19914;-53
2022/12/11 02:10:48;;;;;;;;;;;19.20;40.40;;;;;;5003480;28;19924;-53
2022/12/11 02:13:25;;;;;;;;;;;19.20;40.40;;;;;;5003609;28;20000;-52
2022/12/11 02:15:57;;;;;;;;;;;19.20;40.50;;;;;;5002276;28;19980;-53
2022/12/11 02:18:29;;;;;;;;;;;19.10;40.50;;;;;;5003557;28;20368;-53
2022/12/11 02:21:01;;;;;;;;;;;19.10;40.50;;;;;;5002685;28;19975;-53
2022/12/11 02:23:26;;;;;;;;;;;19.10;40.50;;;;;;5003346;28;19924;-53
2022/12/11 02:26:05;;;;;;;;;;;19.00;40.60;;;;;;5003161;28;20389;-53
2022/12/11 02:28:31;;;;;;;;;;;19.00;40.60;;;;;;5002409;28;19918;-54
2022/12/11 02:30:58;;;;;;;;;;;19.00;40.60;;;;;;5003322;28;20037;-53
2022/12/11 02:33:26;;;;;;;;;;;19.00;40.60;;;;;;4992642;28;19936;-53
2022/12/11 02:35:51;;;;;;;;;;;19.00;40.50;;;;;;4997500;28;19921;-53
2022/12/11 02:38:19;;;;;;;;;;;19.00;40.50;;;;;;5004836;28;19928;-54
2022/12/11 02:40:45;;;;;;;;;;;19.00;40.50;;;;;;5002918;28;20385;-53
2022/12/11 02:43:11;;;;;;;;;;;19.00;40.60;;;;;;5003954;28;19961;-53
2022/12/11 02:45:37;;;;;;;;;;;19.00;40.50;;;;;;4991477;28;20026;-53
2022/12/11 02:48:04;;;;;;;;;;;19.00;40.50;;;;;;4991826;28;19914;-54
2022/12/11 02:50:30;;;;;;;;;;;19.00;40.40;;;;;;5003425;28;20377;-53
2022/12/11 02:52:55;;;;;;;;;;;19.00;40.40;;;;;;4990963;28;19977;-53
2022/12/11 02:55:21;;;;;;;;;;;19.00;40.30;;;;;;5001919;28;19952;-53
2022/12/11 02:57:47;;;;;;;;;;;19.00;40.30;;;;;;4990275;28;20008;-52
2022/12/11 03:00:13;;;;;;;;;;;19.10;40.30;;;;;;4990137;28;19922;-52
2022/12/11 03:02:38;;;;;;;;;;;19.00;40.20;;;;;;5003862;28;19918;-53
2022/12/11 03:05:04;;;;;;;;;;;19.10;40.20;;;;;;5002480;28;20165;-54
2022/12/11 03:07:31;;;;;;;;;;;19.00;40.10;;;;;;4991093;28;19960;-55
2022/12/11 03:09:56;;;;;;;;;;;19.00;40.20;;;;;;5002727;28;19921;-54
2022/12/11 03:12:23;;;;;;;;;;;18.90;40.30;;;;;;4993382;28;19917;-54
2022/12/11 03:14:49;;;;;;;;;;;18.90;40.40;;;;;;4988984;28;19953;-52
2022/12/11 03:17:16;;;;;;;;;;;18.90;40.30;;;;;;5002034;28;19964;-53
2022/12/11 03:19:47;;;;;;;;;;;19.00;40.10;;;;;;4988846;28;20356;-53
2022/12/11 03:22:17;;;;;;;;;;;19.00;40.00;;;;;;4992824;28;20016;-55
2022/12/11 03:24:44;;;;;;;;;;;19.10;40.00;;;;;;4985765;28;19914;-53
2022/12/11 03:27:30;;;;;;;;;;;19.10;39.90;;;;;;5002804;28;19920;-53
2022/12/11 03:29:56;;;;;;;;;;;19.10;39.90;;;;;;4999539;28;19914;-53
2022/12/11 03:32:23;;;;;;;;;;;19.10;39.80;;;;;;4989348;28;19954;-53
2022/12/11 03:35:07;;;;;;;;;;;19.10;39.70;;;;;;4990347;28;19958;-55
2022/12/11 03:37:33;;;;;;;;;;;19.20;39.70;;;;;;5002308;28;19913;-53
2022/12/11 03:40:01;;;;;;;;;;;19.20;39.60;;;;;;4990786;28;19956;-53
2022/12/11 03:42:26;;;;;;;;;;;19.20;39.60;;;;;;4993735;28;19922;-52
2022/12/11 03:44:52;;;;;;;;;;;19.20;39.60;;;;;;4988868;28;19920;-53
2022/12/11 03:47:19;;;;;;;;;;;19.20;39.60;;;;;;4991179;28;20289;-53
2022/12/11 03:49:44;;;;;;;;;;;19.20;39.60;;;;;;5002193;28;20012;-53
2022/12/11 03:52:10;;;;;;;;;;;19.20;39.60;;;;;;5010834;28;19997;-52
2022/12/11 03:54:35;;;;;;;;;;;19.20;39.60;;;;;;5002657;28;19914;-53
2022/12/11 03:57:01;;;;;;;;;;;19.20;39.60;;;;;;5001975;28;19922;-54
2022/12/11 03:59:27;;;;;;;;;;;19.10;39.60;;;;;;4990200;28;19921;-52
2022/12/11 04:01:52;;;;;;;;;;;19.10;39.60;;;;;;5001178;28;19937;-53
2022/12/11 04:04:17;;;;;;;;;;;19.10;39.60;;;;;;5007064;28;19921;-53
2022/12/11 04:06:43;;;;;;;;;;;19.10;39.70;;;;;;5004908;28;19940;-53
2022/12/11 04:09:08;;;;;;;;;;;19.10;39.70;;;;;;5002827;28;19913;-53
2022/12/11 04:11:34;;;;;;;;;;;19.10;39.80;;;;;;5000561;28;19913;-54
2022/12/11 04:16:47;;;;;;;;;;;19.00;39.60;;;;;;5001615;28;19925;-53
2022/12/11 04:24:57;;;;;;;;;;;19.00;39.80;;;;;;4962299;28;19943;-54
2022/12/11 04:30:08;;;;;;;;;;;18.90;40.00;;;;;;5010049;28;20331;-54
2022/12/11 04:32:33;;;;;;;;;;;18.90;39.80;;;;;;5001656;28;20012;-53
2022/12/11 04:34:58;;;;;;;;;;;18.90;39.70;;;;;;5001255;28;20449;-54
2022/12/11 04:37:25;;;;;;;;;;;18.90;39.70;;;;;;5002814;28;19918;-52
2022/12/11 04:39:51;;;;;;;;;;;18.90;39.60;;;;;;5003202;28;19995;-53
2022/12/11 04:42:16;;;;;;;;;;;19.00;39.60;;;;;;5003002;28;20008;-52
2022/12/11 04:44:41;;;;;;;;;;;19.00;39.50;;;;;;4999504;28;19922;-52
2022/12/11 04:47:07;;;;;;;;;;;19.00;39.50;;;;;;5001901;28;19971;-54
2022/12/11 04:49:32;;;;;;;;;;;19.00;39.50;;;;;;5001969;28;19917;-52
2022/12/11 04:51:58;;;;;;;;;;;19.00;39.60;;;;;;5003084;28;19914;-52
2022/12/11 04:54:23;;;;;;;;;;;19.00;39.50;;;;;;5002024;28;19914;-53
2022/12/11 04:56:49;;;;;;;;;;;19.00;39.50;;;;;;5003796;28;19921;-53
2022/12/11 04:59:14;;;;;;;;;;;19.10;39.50;;;;;;5005456;28;19914;-54
2022/12/11 05:01:39;;;;;;;;;;;19.10;39.40;;;;;;5005600;28;19925;-52
2022/12/11 05:04:05;;;;;;;;;;;19.10;39.40;;;;;;5005347;28;19921;-53
2022/12/11 05:06:31;;;;;;;;;;;19.10;39.30;;;;;;5005787;28;19913;-53
2022/12/11 05:08:56;;;;;;;;;;;19.10;39.20;;;;;;5016751;28;19932;-53
2022/12/11 05:11:22;;;;;;;;;;;19.10;39.20;;;;;;5004142;28;19913;-53
2022/12/11 05:13:47;;;;;;;;;;;19.10;39.20;;;;;;5004424;28;19921;-53
2022/12/11 05:16:13;;;;;;;;;;;19.10;39.20;;;;;;5005271;28;19917;-54
2022/12/11 05:18:38;;;;;;;;;;;19.10;39.20;;;;;;5004879;28;19919;-53
2022/12/11 05:21:05;;;;;;;;;;;19.10;39.20;;;;;;5003058;28;19929;-54
2022/12/11 05:23:30;;;;;;;;;;;19.10;39.30;;;;;;5008134;28;19917;-54
2022/12/11 05:25:57;;;;;;;;;;;19.10;39.30;;;;;;5004536;28;19939;-52
2022/12/11 05:28:23;;;;;;;;;;;19.00;39.20;;;;;;5000405;28;19922;-53
2022/12/11 05:30:53;;;;;;;;;;;19.00;39.30;;;;;;5005041;28;19921;-52
2022/12/11 05:33:19;;;;;;;;;;;19.00;39.20;;;;;;5019732;28;19913;-54
2022/12/11 05:35:47;;;;;;;;;;;19.00;39.30;;;;;;5003606;28;20036;-53
2022/12/11 05:38:13;;;;;;;;;;;18.90;39.20;;;;;;5000861;28;19925;-53
2022/12/11 05:40:38;;;;;;;;;;;18.90;39.20;;;;;;5004230;28;19918;-53
2022/12/11 05:43:04;;;;;;;;;;;18.90;39.30;;;;;;5004710;28;19959;-53
2022/12/11 05:45:29;;;;;;;;;;;18.90;39.20;;;;;;5003709;28;20317;-54
2022/12/11 05:47:55;;;;;;;;;;;18.90;39.20;;;;;;5004310;28;19913;-53
2022/12/11 05:50:20;;;;;;;;;;;18.90;39.10;;;;;;5003718;28;24661;-53
2022/12/11 05:52:45;;;;;;;;;;;18.90;39.00;;;;;;5005410;28;19925;-53
2022/12/11 05:55:11;;;;;;;;;;;18.90;39.00;;;;;;5004536;28;20373;-53
2022/12/11 05:57:36;;;;;;;;;;;18.90;39.70;;;;;;5004805;28;19943;-52
2022/12/11 06:00:03;;;;;;;;;;;19.00;39.00;;;;;;5005407;28;19918;-52
2022/12/11 06:02:28;;;;;;;;;;;19.00;39.00;;;;;;5008112;28;19957;-53
2022/12/11 06:04:54;;;;;;;;;;;19.00;38.90;;;;;;5003435;28;19949;-52
2022/12/11 06:07:19;;;;;;;;;;;19.00;38.90;;;;;;4999702;28;19918;-53
2022/12/11 06:09:44;;;;;;;;;;;19.00;38.80;;;;;;5004579;28;19917;-53
2022/12/11 06:12:10;;;;;;;;;;;19.00;38.80;;;;;;5003841;28;19914;-52
2022/12/11 06:14:35;;;;;;;;;;;19.00;38.70;;;;;;5003718;28;19914;-54
2022/12/11 06:17:01;;;;;;;;;;;19.00;38.70;;;;;;5003547;28;19917;-53
2022/12/11 06:19:26;;;;;;;;;;;19.10;38.80;;;;;;5003724;28;19917;-53
2022/12/11 06:21:52;;;;;;;;;;;19.10;38.70;;;;;;5004265;28;19932;-54
2022/12/11 06:24:17;;;;;;;;;;;19.10;38.70;;;;;;5003536;28;19921;-53
2022/12/11 06:26:42;;;;;;;;;;;19.10;38.70;;;;;;5002417;28;19966;-53
2022/12/11 06:29:08;;;;;;;;;;;19.10;38.70;;;;;;5003235;28;19913;-53
2022/12/11 06:31:33;;;;;;;;;;;19.10;38.70;;;;;;5003481;28;19914;-54
2022/12/11 06:33:59;;;;;;;;;;;19.00;38.70;;;;;;5003699;28;19918;-53
2022/12/11 06:36:24;;;;;;;;;;;19.00;38.70;;;;;;5003270;28;20009;-53
2022/12/11 06:38:50;;;;;;;;;;;19.00;38.70;;;;;;5003449;28;19925;-53
2022/12/11 06:41:15;;;;;;;;;;;19.00;38.80;;;;;;5002358;28;19918;-53
2022/12/11 06:43:41;;;;;;;;;;;18.90;38.70;;;;;;5017947;28;19918;-53
2022/12/11 06:46:11;;;;;;;;;;;18.90;38.80;;;;;;5003098;28;20006;-53
2022/12/11 06:48:36;;;;;;;;;;;18.90;38.80;;;;;;5004536;28;20404;-53
2022/12/11 06:51:05;;;;;;;;;;;18.90;38.80;;;;;;5002885;28;19921;-52
2022/12/11 06:53:31;;;;;;;;;;;18.90;38.80;;;;;;5002731;28;19913;-53
2022/12/11 06:56:00;;;;;;;;;;;18.90;38.80;;;;;;5002637;28;19924;-53
2022/12/11 06:58:25;;;;;;;;;;;18.90;38.80;;;;;;5003496;28;19924;-53
2022/12/11 07:00:51;;;;;;;;;;;18.90;38.70;;;;;;4996950;28;19925;-52
2022/12/11 07:03:16;;;;;;;;;;;18.90;38.70;;;;;;5018800;28;19920;-53
2022/12/11 07:05:42;;;;;;;;;;;18.90;38.60;;;;;;5003228;28;19924;-53
2022/12/11 07:08:07;;;;;;;;;;;18.90;38.60;;;;;;5001204;28;19960;-52
2022/12/11 07:10:32;;;;;;;;;;;18.90;38.60;;;;;;5001813;28;19918;-53
2022/12/11 07:12:58;;;;;;;;;;;18.90;38.60;;;;;;5002908;28;19913;-53
2022/12/11 07:15:23;;;;;;;;;;;19.00;38.50;;;;;;5003282;28;20285;-54
2022/12/11 07:17:49;;;;;;;;;;;18.90;38.40;;;;;;5003027;28;19914;-53
2022/12/11 07:20:14;;;;;;;;;;;18.90;38.40;;;;;;5002972;28;19990;-53
2022/12/11 07:22:40;;;;;;;;;;;19.00;38.40;;;;;;5004781;28;19918;-53
2022/12/11 07:25:05;;;;;;;;;;;19.00;38.40;;;;;;5002280;28;19913;-52
2022/12/11 07:27:31;;;;;;;;;;;19.00;38.30;;;;;;5003506;28;20397;-53
2022/12/11 07:29:56;;;;;;;;;;;19.00;38.40;;;;;;5003412;28;19918;-55
2022/12/11 07:32:22;;;;;;;;;;;19.00;38.40;;;;;;5000801;28;19917;-53
2022/12/11 07:34:47;;;;;;;;;;;19.00;38.30;;;;;;5001714;28;22110;-54
2022/12/11 07:37:13;;;;;;;;;;;19.00;38.40;;;;;;5002185;28;19994;-53
2022/12/11 07:39:38;;;;;;;;;;;19.00;38.40;;;;;;5003084;28;19918;-55
2022/12/11 07:42:04;;;;;;;;;;;19.00;38.40;;;;;;5000718;28;19924;-54
2022/12/11 07:44:29;;;;;;;;;;;19.00;38.40;;;;;;5009250;28;19956;-53
2022/12/11 07:46:55;;;;;;;;;;;18.90;38.30;;;;;;5002962;28;19917;-53
2022/12/11 07:49:20;;;;;;;;;;;19.00;38.40;;;;;;5001854;28;19914;-53
2022/12/11 07:51:46;;;;;;;;;;;19.00;38.40;;;;;;5001764;28;19913;-54
2022/12/11 07:54:15;;;;;;;;;;;19.00;38.40;;;;;;5002292;28;19927;-53
2022/12/11 07:56:41;;;;;;;;;;;19.00;38.50;;;;;;5002456;28;19914;-54
2022/12/11 07:59:07;;;;;;;;;;;18.90;38.50;;;;;;5002380;28;20421;-53
2022/12/11 08:01:35;;;;;;;;;;;18.90;38.60;;;;;;5000081;28;20369;-55
2022/12/11 08:04:00;;;;;;;;;;;18.90;38.60;;;;;;4999496;28;20016;-54
2022/12/11 08:06:26;;;;;;;;;;;18.90;38.70;;;;;;5010878;28;20011;-53
2022/12/11 08:08:52;;;;;;;;;;;18.90;38.90;;;;;;5003189;28;19925;-53
2022/12/11 08:11:18;;;;;;;;;;;18.90;38.90;;;;;;4997494;28;19921;-52
2022/12/11 08:13:43;;;;;;;;;;;18.90;38.90;;;;;;5000092;28;19922;-54
2022/12/11 08:16:10;;;;;;;;;;;18.80;38.90;;;;;;5003843;28;20014;-52
2022/12/11 08:18:35;;;;;;;;;;;18.80;38.80;;;;;;5002843;28;19914;-54
2022/12/11 08:21:11;;;;;;;;;;;18.90;38.90;;;;;;5001418;28;19933;-52
2022/12/11 08:23:37;;;;;;;;;;;18.80;38.90;;;;;;5001757;28;19918;-53
2022/12/11 08:26:03;;;;;;;;;;;18.90;38.90;;;;;;5013706;28;19951;-53
2022/12/11 08:28:28;;;;;;;;;;;18.80;38.80;;;;;;5003904;28;19913;-53
2022/12/11 08:30:56;;;;;;;;;;;18.80;38.80;;;;;;5004527;28;19920;-54
2022/12/11 08:33:22;;;;;;;;;;;18.80;38.90;;;;;;5005235;28;20352;-53
2022/12/11 08:35:47;;;;;;;;;;;18.80;39.00;;;;;;5005283;28;19996;-52
2022/12/11 08:38:13;;;;;;;;;;;18.80;39.00;;;;;;5006929;28;19967;-53
2022/12/11 08:40:38;;;;;;;;;;;18.80;38.90;;;;;;5013477;28;19932;-52
2022/12/11 08:43:04;;;;;;;;;;;18.90;38.90;;;;;;5004908;28;20004;-54
2022/12/11 08:45:29;;;;;;;;;;;18.90;38.90;;;;;;5007079;28;19918;-54
2022/12/11 08:47:55;;;;;;;;;;;18.90;38.80;;;;;;5005018;28;19918;-54
2022/12/11 08:50:20;;;;;;;;;;;18.90;38.70;;;;;;5005628;28;19954;-53
2022/12/11 08:52:45;;;;;;;;;;;19.00;38.70;;;;;;5010976;28;19972;-53
2022/12/11 08:55:11;;;;;;;;;;;19.10;38.70;;;;;;5009143;28;19917;-53
2022/12/11 08:57:38;;;;;;;;;;;19.00;38.70;;;;;;4999536;28;20331;-53
2022/12/11 09:00:05;;;;;;;;;;;19.00;38.70;;;;;;5028288;28;19912;-53
2022/12/11 09:02:30;;;;;;;;;;;19.00;38.80;;;;;;5019668;28;19912;-53
2022/12/11 09:04:56;;;;;;;;;;;19.00;38.90;;;;;;5004573;28;19924;-53
2022/12/11 09:07:21;;;;;;;;;;;19.00;38.90;;;;;;5007724;28;20424;-53
2022/12/11 09:09:46;;;;;;;;;;;19.00;38.90;;;;;;5004227;28;20922;-53
2022/12/11 09:12:12;;;;;;;;;;;19.00;38.90;;;;;;5003991;28;20388;-52
2022/12/11 09:14:38;;;;;;;;;;;18.90;38.80;;;;;;5004478;28;19913;-54
2022/12/11 09:17:04;;;;;;;;;;;19.00;39.00;;;;;;5010365;28;19913;-53
2022/12/11 09:19:29;;;;;;;;;;;19.00;39.00;;;;;;5005204;28;20024;-53
2022/12/11 09:21:55;;;;;;;;;;;19.10;38.80;;;;;;5003837;28;20028;-54
2022/12/11 09:24:21;;;;;;;;;;;19.50;38.00;;;;;;5004173;28;19918;-53
2022/12/11 09:26:46;;;;;;;;;;;20.10;36.70;;;;;;5004398;28;19945;-52
2022/12/11 09:29:11;;;;;;;;;;;20.70;35.80;;;;;;5001621;28;19922;-52
2022/12/11 09:31:37;;;;;;;;;;;21.00;35.10;;;;;;4990752;28;19937;-52
2022/12/11 09:34:06;;;;;;;;;;;21.20;34.90;;;;;;5004042;28;20388;-53
2022/12/11 09:36:31;;;;;;;;;;;21.40;34.70;;;;;;5002748;28;19922;-52
2022/12/11 09:39:01;;;;;;;;;;;21.50;34.80;;;;;;5004224;28;20511;-53
2022/12/11 09:41:36;;;;;;;;;;;21.50;34.80;;;;;;5003310;28;19957;-54
2022/12/11 09:44:15;;;;;;;;;;;21.60;35.10;;;;;;5003224;28;20305;-52
2022/12/11 09:46:40;;;;;;;;;;;21.70;35.50;;;;;;5025917;28;19917;-53
2022/12/11 09:49:10;;;;;;;;;;;21.70;35.80;;;;;;5007895;28;19925;-53
2022/12/11 09:51:41;;;;;;;;;;;21.50;36.10;;;;;;4992592;28;20421;-54
2022/12/11 09:54:06;;;;;;;;;;;21.50;36.80;;;;;;5007617;28;20604;-53
2022/12/11 09:56:45;;;;;;;;;;;21.50;37.00;;;;;;5007518;28;19922;-53
2022/12/11 09:59:26;;;;;;;;;;;21.50;37.10;;;;;;4992899;28;20008;-53
2022/12/11 10:02:00;;;;;;;;;;;21.50;37.20;;;;;;4992690;28;19922;-53
2022/12/11 10:04:29;;;;;;;;;;;21.50;37.30;;;;;;4993144;28;19909;-52
2022/12/11 10:07:00;;;;;;;;;;;21.50;37.40;;;;;;5011070;28;19916;-53
2022/12/11 10:09:30;;;;;;;;;;;21.60;38.00;;;;;;4993716;28;19909;-53
2022/12/11 10:12:06;;;;;;;;;;;21.60;37.30;;;;;;5022968;28;19942;-54
2022/12/11 10:14:45;;;;;;;;;;;21.70;37.50;;;;;;5001488;28;20567;-52
2022/12/11 10:17:10;;;;;;;;;;;21.70;37.50;;;;;;4991170;28;19939;-54
2022/12/11 10:19:35;;;;;;;;;;;21.70;37.50;;;;;;5009542;28;20733;-52
2022/12/11 10:22:01;;;;;;;;;;;21.70;37.40;;;;;;5019024;28;19929;-53
2022/12/11 10:24:28;;;;;;;;;;;21.80;37.50;;;;;;5010975;28;20449;-53
2022/12/11 10:26:54;;;;;;;;;;;21.70;37.50;;;;;;4993182;28;19910;-52
2022/12/11 10:29:20;;;;;;;;;;;21.80;37.50;;;;;;5057419;28;20402;-53
2022/12/11 10:31:48;;;;;;;;;;;21.70;37.60;;;;;;5093750;28;20395;-54
2022/12/11 10:34:23;;;;;;;;;;;21.70;37.70;;;;;;5060474;28;19913;-53
2022/12/11 10:36:48;;;;;;;;;;;21.70;37.70;;;;;;5008776;28;19921;-54
2022/12/11 10:39:17;;;;;;;;;;;21.70;37.80;;;;;;5005946;28;19928;-54
2022/12/11 10:41:43;;;;;;;;;;;21.70;37.80;;;;;;5000162;28;20016;-52
2022/12/11 10:44:19;;;;;;;;;;;21.70;38.00;;;;;;5002619;28;19914;-52
2022/12/11 10:46:45;;;;;;;;;;;21.60;38.40;;;;;;5004559;28;19973;-52
2022/12/11 10:49:24;;;;;;;;;;;21.60;38.20;;;;;;5000550;28;20373;-54
2022/12/11 10:51:49;;;;;;;;;;;21.60;38.10;;;;;;5014833;28;19960;-54
2022/12/11 10:54:31;;;;;;;;;;;21.60;38.30;;;;;;4991485;28;19964;-53
2022/12/11 10:56:56;;;;;;;;;;;21.50;38.40;;;;;;5010332;28;19924;-53
2022/12/11 10:59:28;;;;;;;;;;;21.50;39.30;;;;;;5009668;28;20321;-54
2022/12/11 11:01:53;;;;;;;;;;;21.50;38.60;;;;;;4992911;28;19963;-53
2022/12/11 11:04:32;;;;;;;;;;;21.50;38.50;;;;;;5007399;28;19957;-54
2022/12/11 11:07:01;;;;;;;;;;;21.60;38.70;;;;;;4986005;28;19956;-53
2022/12/11 11:09:32;;;;;;;;;;;21.50;38.60;;;;;;5060645;28;19969;-55
2022/12/11 11:11:57;;;;;;;;;;;21.50;38.50;;;;;;5021868;28;19913;-55
2022/12/11 11:14:23;;;;;;;;;;;21.50;38.50;;;;;;5019126;28;20437;-52
2022/12/11 11:16:49;;;;;;;;;;;21.60;38.50;;;;;;5045658;28;19910;-53
2022/12/11 11:19:20;;;;;;;;;;;21.60;38.40;;;;;;5008055;28;20479;-54
2022/12/11 11:21:47;;;;;;;;;;;21.60;38.40;;;;;;4998752;28;19926;-53
2022/12/11 11:24:26;;;;;;;;;;;21.60;38.40;;;;;;5004776;28;19917;-54
2022/12/11 11:26:51;;;;;;;;;;;21.60;38.30;;;;;;5005479;28;19917;-53
2022/12/11 11:29:21;;;;;;;;;;;21.70;38.40;;;;;;5002045;28;19967;-53
2022/12/11 11:31:47;;;;;;;;;;;21.60;38.50;;;;;;4993546;28;20292;-53
2022/12/11 11:34:17;;;;;;;;;;;21.70;38.80;;;;;;5016583;28;19917;-54
2022/12/11 11:36:43;;;;;;;;;;;21.70;39.00;;;;;;4987407;28;19967;-52
2022/12/11 11:39:19;;;;;;;;;;;21.70;39.00;;;;;;5005510;28;19921;-52
2022/12/11 11:41:45;;;;;;;;;;;21.70;39.10;;;;;;4993248;28;19935;-53
2022/12/11 11:44:11;;;;;;;;;;;21.70;39.20;;;;;;5008387;28;20379;-55
2022/12/11 11:46:47;;;;;;;;;;;21.60;39.30;;;;;;5032023;28;20339;-53
2022/12/11 11:49:15;;;;;;;;;;;21.60;39.60;;;;;;5008883;28;19948;-53
2022/12/11 11:52:07;;;;;;;;;;;21.50;39.70;;;;;;5007357;28;19913;-54
2022/12/11 11:54:33;;;;;;;;;;;21.50;39.70;;;;;;5007156;28;19922;-54
2022/12/11 11:57:00;;;;;;;;;;;21.70;39.50;;;;;;4990961;28;20000;-54
2022/12/11 11:59:36;;;;;;;;;;;21.70;39.40;;;;;;5008594;28;19910;-54
2022/12/11 12:02:01;;;;;;;;;;;21.80;39.40;;;;;;5009080;28;20028;-53
2022/12/11 12:04:30;;;;;;;;;;;21.90;39.30;;;;;;5008193;28;19992;-52
2022/12/11 12:07:15;;;;;;;;;;;22.00;39.30;;;;;;5002870;28;20284;-53
2022/12/11 12:09:52;;;;;;;;;;;22.00;39.20;;;;;;5000519;28;19955;-52
2022/12/11 12:12:24;;;;;;;;;;;22.10;39.10;;;;;;5004041;28;19964;-53
2022/12/11 12:14:53;;;;;;;;;;;22.10;39.00;;;;;;5021359;28;20361;-54
2022/12/11 12:17:22;;;;;;;;;;;22.20;38.90;;;;;;4991097;28;19914;-53
2022/12/11 12:19:51;;;;;;;;;;;22.30;38.70;;;;;;5008353;28;19931;-53
2022/12/11 12:22:26;;;;;;;;;;;22.40;38.50;;;;;;5010229;28;20354;-52
2022/12/11 12:25:11;;;;;;;;;;;22.40;38.70;;;;;;5024414;28;19916;-53
2022/12/11 12:27:44;;;;;;;;;;;22.40;38.50;;;;;;5027460;28;19920;-53
2022/12/11 12:30:16;;;;;;;;;;;22.40;38.60;;;;;;4994311;28;19958;-54
2022/12/11 12:32:41;;;;;;;;;;;22.30;38.70;;;;;;5020932;28;20420;-53
2022/12/11 12:35:07;;;;;;;;;;;22.30;38.90;;;;;;5062657;28;20012;-54
2022/12/11 12:37:44;;;;;;;;;;;22.20;38.90;;;;;;5046396;28;19957;-55
2022/12/11 12:40:13;;;;;;;;;;;22.00;39.20;;;;;;5005941;28;19970;-54
2022/12/11 12:42:48;;;;;;;;;;;21.80;39.20;;;;;;4988189;28;19929;-54
2022/12/11 12:45:13;;;;;;;;;;;21.70;39.40;;;;;;5005997;28;19913;-54
2022/12/11 12:47:39;;;;;;;;;;;21.70;39.60;;;;;;5002472;28;20259;-54
2022/12/11 12:50:09;;;;;;;;;;;21.70;39.60;;;;;;4997841;28;20008;-53
2022/12/11 12:52:35;;;;;;;;;;;21.80;39.50;;;;;;5004245;28;19953;-53
2022/12/11 12:55:24;;;;;;;;;;;21.90;39.40;;;;;;5004884;28;19966;-54
2022/12/11 12:57:49;;;;;;;;;;;22.00;39.10;;;;;;5003721;28;19921;-53
2022/12/11 13:00:28;;;;;;;;;;;22.10;39.10;;;;;;5023402;28;19934;-54
2022/12/11 13:02:55;;;;;;;;;;;22.20;38.80;;;;;;5024328;28;19976;-53
2022/12/11 13:05:24;;;;;;;;;;;22.30;38.90;;;;;;5003791;28;19971;-53
2022/12/11 13:07:56;;;;;;;;;;;22.50;38.80;;;;;;4996092;28;19921;-54
2022/12/11 13:10:32;;;;;;;;;;;22.50;38.80;;;;;;4999105;28;19918;-53
2022/12/11 13:12:57;;;;;;;;;;;22.50;38.80;;;;;;4993180;28;19918;-54
2022/12/11 13:15:35;;;;;;;;;;;22.60;38.80;;;;;;5005270;28;19929;-55
2022/12/11 13:18:02;;;;;;;;;;;22.60;38.80;;;;;;5010714;28;21443;-53
2022/12/11 13:20:29;;;;;;;;;;;22.60;38.80;;;;;;5011166;28;20090;-56
2022/12/11 13:22:56;;;;;;;;;;;22.60;38.90;;;;;;5012448;28;19917;-54
2022/12/11 13:25:26;;;;;;;;;;;22.60;38.90;;;;;;4993232;28;20604;-54
2022/12/11 13:27:51;;;;;;;;;;;22.60;39.00;;;;;;4993499;28;19918;-53
2022/12/11 13:30:17;;;;;;;;;;;22.60;39.10;;;;;;5009086;28;19941;-54
2022/12/11 13:32:51;;;;;;;;;;;22.60;39.00;;;;;;5009896;28;20050;-54
2022/12/11 13:35:16;;;;;;;;;;;22.60;39.00;;;;;;5010142;28;19953;-53
2022/12/11 13:37:42;;;;;;;;;;;22.60;39.20;;;;;;5008868;28;20062;-53
2022/12/11 13:40:13;;;;;;;;;;;22.60;39.10;;;;;;5005713;28;19970;-53
2022/12/11 13:42:39;;;;;;;;;;;22.60;39.30;;;;;;5018385;28;20433;-54
2022/12/11 13:45:05;;;;;;;;;;;22.60;39.20;;;;;;4999720;28;19917;-53
2022/12/11 13:47:30;;;;;;;;;;;22.60;39.20;;;;;;5004389;28;19997;-53
2022/12/11 13:50:00;;;;;;;;;;;22.70;39.90;;;;;;5007092;28;19918;-54
2022/12/11 13:52:27;;;;;;;;;;;22.70;39.20;;;;;;5008542;28;19914;-54
2022/12/11 13:54:54;;;;;;;;;;;22.70;39.10;;;;;;5010233;28;20369;-54
2022/12/11 13:57:20;;;;;;;;;;;22.70;39.10;;;;;;5052258;28;19916;-53
2022/12/11 13:59:51;;;;;;;;;;;22.70;39.00;;;;;;5004819;28;19924;-54
2022/12/11 14:02:22;;;;;;;;;;;22.70;39.00;;;;;;5009223;28;19921;-52
2022/12/11 14:04:47;;;;;;;;;;;22.80;39.20;;;;;;5044264;28;19918;-53
2022/12/11 14:07:14;;;;;;;;;;;22.80;39.00;;;;;;5028824;28;20266;-53
2022/12/11 14:09:42;;;;;;;;;;;22.80;39.10;;;;;;5013481;28;20012;-54
2022/12/11 14:12:13;;;;;;;;;;;22.80;39.10;;;;;;5004767;28;19986;-51
2022/12/11 14:14:39;;;;;;;;;;;22.80;39.10;;;;;;5004498;28;20559;-53
2022/12/11 14:17:05;;;;;;;;;;;22.80;39.20;;;;;;5002419;28;20000;-54
2022/12/11 14:19:30;;;;;;;;;;;22.80;39.10;;;;;;5008049;28;19952;-52
2022/12/11 14:21:56;;;;;;;;;;;22.80;39.20;;;;;;5031371;28;19921;-53
2022/12/11 14:24:22;;;;;;;;;;;22.80;38.90;;;;;;5005064;28;19921;-53
2022/12/11 14:26:51;;;;;;;;;;;22.90;39.20;;;;;;5009986;28;19965;-53
2022/12/11 14:29:23;;;;;;;;;;;22.80;39.10;;;;;;5002710;28;19922;-54
2022/12/11 14:31:49;;;;;;;;;;;22.90;39.10;;;;;;5003314;28;19921;-54